Nearby METAR Reports

 

KRYN - Tucson/Ryan Fld, Arizona, USA
Distance from station: SSW 16mi, 26km
Updated: Sun, 19-Aug-2018 5:45pm MST
NOT Current
Clear
Clear
 Wind from NW
Wind: NW 13 mph , 20 km/h
Temperature: 100°F , 38°C
Dew Point: 61°F , 16°C
Humidity: 27%
Barometer: 29.87 inHg , 1011.5 hPa
Clouds: Clear
Visibility: 10 miles , 16 km
2018/08/20 00:45 KRYN 200045Z 31011KT 10SM CLR 38/16 A2987
KTUS - Tucson, Arizona, USA
Distance from station: SSE 18mi, 28km
Updated: Sun, 19-Aug-2018 7:53pm MST
Clear
Clear
 Wind from NW
Wind: NW 9 mph , 15 km/h
Temperature: 95°F , 35°C
Dew Point: 59°F , 15°C
Humidity: 30%
Barometer: 29.91 inHg , 1012.9 hPa
Clouds: Clear
Visibility: 10 miles , 16 km
2018/08/20 02:53 KTUS 200253Z 31008KT 10SM CLR 35/15 A2991 RMK AO2 SLP074 T03500150 53009
 
KDMA - Davis/Tucson, Arizona, USA
Distance from station: SE 18mi, 29km
Updated: Sun, 19-Aug-2018 7:58pm MST
Clear
Clear
 Wind from WNW
Wind: WNW 9 mph , 15 km/h
Temperature: 93°F , 34°C
Dew Point: 57°F , 14°C
Humidity: 30%
Barometer: 29.90 inHg , 1012.5 hPa
Clouds: Clear
Visibility: 10 miles , 16 km
2018/08/20 02:58 KDMA 200258Z AUTO 30008KT 10SM CLR 34/14 A2990 RMK AO2 SLP076 T03420141 53009 $
KCGZ - Casa Granda, Arizona, USA
Distance from station: NW 57mi, 92km
Updated: Sun, 19-Aug-2018 7:56pm MST
Clear
Clear
 Wind from WSW
Wind: WSW 6 mph , 9 km/h
Temperature: 99°F , 37°C
Dew Point: 63°F , 17°C
Humidity: 31%
Barometer: 29.79 inHg , 1008.8 hPa
Clouds: Clear
Visibility: 10 miles , 16 km
2018/08/20 02:56 KCGZ 200256Z AUTO 25005KT 10SM CLR 37/17 A2979 RMK AO2 SLP067 6//// T03720172 53002 PNO $
 
KALK - Pioneer Airfield, Arizona, USA
Distance from station: SE 65mi, 104km
Updated: Sun, 19-Aug-2018 7:56pm MST
Clear
Clear
 Wind from SW
Wind: SW 14 mph , 22 km/h
Temperature: 81°F , 27°C
Heat Index: 81°F , 27°C
Dew Point: 59°F , 15°C
Humidity: 48%
Barometer: 30.11 inHg , 1019.6 hPa
Clouds: Clear
Visibility: 10 miles , 16 km
2018/08/20 02:56 KALK 200256Z AUTO 22012KT 10SM CLR 27/15 A3011 RMK AO2 SLP095 T02720150 53014
KOLS - Nogales, Arizona, USA
Distance from station: S 67mi, 108km
Updated: Sun, 19-Aug-2018 7:54pm MST
Partly cloudy
Partly cloudy
 
Temperature: 73°F , 23°C
Dew Point: 66°F , 19°C
Humidity: 78%
Barometer: 30.04 inHg , 1017.3 hPa
Clouds: Partly cloudy
Visibility: 10 miles , 16 km
Cloud details: Partly cloudy 8000 ft
2018/08/20 02:54 KOLS 200254Z AUTO 10SM SCT080 23/19 A3004 RMK AO2 SLP108 60056 T02330189 51019 $
 
KFHU - Fort Huachuca, Arizona, USA
Distance from station: SE 69mi, 110km
Updated: Sun, 19-Aug-2018 7:58pm MST
Few Clouds
Few Clouds
 Wind from WSW
Wind: WSW 12 mph , 19 km/h
Temperature: 82°F , 28°C
Heat Index: 82°F , 28°C
Dew Point: 59°F , 15°C
Humidity: 45%
Barometer: 30.10 inHg , 1019.3 hPa
Clouds: Few Clouds
Visibility: 10 miles , 16 km
Cloud details: Few Clouds 23000 ft
2018/08/20 02:58 KFHU 200258Z AUTO 25010KT 10SM FEW230 28/15 A3010 RMK AO2 SLP112 T02810151 53014
KIWA - Chandler/Mesa, Arizona, USA
Distance from station: NNW 73mi, 117km
Updated: Sun, 19-Aug-2018 7:47pm MST
Clear
Clear
 Wind from NW
Wind: NW 6 mph , 9 km/h
Temperature: 100°F , 38°C
Dew Point: 57°F , 14°C
Humidity: 24%
Barometer: 29.77 inHg , 1008.1 hPa
Clouds: Clear
Visibility: 20 miles , 32 km
2018/08/20 02:47 KIWA 200247Z 31005KT 20SM SKC 38/14 A2977